sensor_id;sensor_type;location;lat;lon;timestamp;pressure;altitude;pressure_sealevel;temperature;humidity
54592;BME280;40488;48.558;18.150;2023-05-02T00:01:14;99619.84;;;11.70;72.08
54592;BME280;40488;48.558;18.150;2023-05-02T00:03:42;99619.81;;;11.72;72.19
54592;BME280;40488;48.558;18.150;2023-05-02T00:06:13;99612.16;;;11.64;72.11
54592;BME280;40488;48.558;18.150;2023-05-02T00:08:42;99620.69;;;11.69;72.07
54592;BME280;40488;48.558;18.150;2023-05-02T00:11:11;99590.13;;;11.45;72.13
54592;BME280;40488;48.558;18.150;2023-05-02T00:13:41;99625.84;;;11.60;72.15
54592;BME280;40488;48.558;18.150;2023-05-02T00:16:10;99609.63;;;11.60;72.44
54592;BME280;40488;48.558;18.150;2023-05-02T00:18:39;99618.13;;;11.65;72.30
54592;BME280;40488;48.558;18.150;2023-05-02T00:21:08;99617.31;;;11.58;72.03
54592;BME280;40488;48.558;18.150;2023-05-02T00:23:39;99617.31;;;11.58;72.48
54592;BME280;40488;48.558;18.150;2023-05-02T00:26:08;99615.59;;;11.60;72.36
54592;BME280;40488;48.558;18.150;2023-05-02T00:28:41;99612.22;;;11.61;72.15
54592;BME280;40488;48.558;18.150;2023-05-02T00:31:10;99619.84;;;11.66;71.70
54592;BME280;40488;48.558;18.150;2023-05-02T00:33:38;99619.00;;;11.62;71.31
54592;BME280;40488;48.558;18.150;2023-05-02T00:36:12;99621.56;;;11.61;71.68
54592;BME280;40488;48.558;18.150;2023-05-02T00:38:43;99619.88;;;11.60;71.50
54592;BME280;40488;48.558;18.150;2023-05-02T00:41:12;99616.47;;;11.55;71.67
54592;BME280;40488;48.558;18.150;2023-05-02T00:43:41;99621.59;;;11.56;71.25
54592;BME280;40488;48.558;18.150;2023-05-02T00:46:10;99621.59;;;11.55;71.14
54592;BME280;40488;48.558;18.150;2023-05-02T00:48:39;99608.84;;;11.47;71.00
54592;BME280;40488;48.558;18.150;2023-05-02T00:51:08;99619.06;;;11.50;70.62
54592;BME280;40488;48.558;18.150;2023-05-02T00:53:39;99615.69;;;11.47;71.18
54592;BME280;40488;48.558;18.150;2023-05-02T00:56:09;99622.47;;;11.52;70.86
54592;BME280;40488;48.558;18.150;2023-05-02T00:58:39;99631.00;;;11.48;70.83
54592;BME280;40488;48.558;18.150;2023-05-02T01:01:19;99622.50;;;11.43;70.80
54592;BME280;40488;48.558;18.150;2023-05-02T01:04:03;99611.47;;;11.38;70.80
54592;BME280;40488;48.558;18.150;2023-05-02T01:06:47;99626.78;;;11.38;70.58
54592;BME280;40488;48.558;18.150;2023-05-02T01:09:29;99625.94;;;11.39;70.69
54592;BME280;40488;48.558;18.150;2023-05-02T01:12:04;99627.69;;;11.34;70.61
54592;BME280;40488;48.558;18.150;2023-05-02T01:14:40;99622.56;;;11.34;70.43
54592;BME280;40488;48.558;18.150;2023-05-02T01:17:11;99625.97;;;11.33;70.69
54592;BME280;40488;48.558;18.150;2023-05-02T01:19:46;99622.56;;;11.34;70.18
54592;BME280;40488;48.558;18.150;2023-05-02T01:22:19;99618.31;;;11.28;70.28
54592;BME280;40488;48.558;18.150;2023-05-02T01:24:56;99627.69;;;11.28;70.67
54592;BME280;40488;48.558;18.150;2023-05-02T01:27:42;99637.06;;;11.26;70.64
54592;BME280;40488;48.558;18.150;2023-05-02T01:30:18;99629.41;;;11.23;70.32
54592;BME280;40488;48.558;18.150;2023-05-02T01:32:50;99624.34;;;11.14;70.64
54592;BME280;40488;48.558;18.150;2023-05-02T01:35:21;99623.50;;;11.16;70.93
54592;BME280;40488;48.558;18.150;2023-05-02T01:37:54;99626.06;;;11.15;71.05
54592;BME280;40488;48.558;18.150;2023-05-02T01:40:23;99629.44;;;11.14;70.61
54592;BME280;40488;48.558;18.150;2023-05-02T01:42:54;99627.78;;;11.13;70.91
54592;BME280;40488;48.558;18.150;2023-05-02T01:45:27;99619.25;;;11.14;70.78
54592;BME280;40488;48.558;18.150;2023-05-02T01:47:57;99618.41;;;11.07;70.55
54592;BME280;40488;48.558;18.150;2023-05-02T01:50:30;99613.31;;;11.10;71.10
54592;BME280;40488;48.558;18.150;2023-05-02T01:52:59;99622.66;;;11.07;70.35
54592;BME280;40488;48.558;18.150;2023-05-02T01:55:32;99619.31;;;10.96;70.87
54592;BME280;40488;48.558;18.150;2023-05-02T01:58:05;99622.72;;;11.01;70.99
54592;BME280;40488;48.558;18.150;2023-05-02T02:00:37;99627.81;;;10.98;71.09
54592;BME280;40488;48.558;18.150;2023-05-02T02:03:09;99619.31;;;10.90;71.19
54592;BME280;40488;48.558;18.150;2023-05-02T02:05:40;99620.19;;;10.89;71.09
54592;BME280;40488;48.558;18.150;2023-05-02T02:08:09;99623.59;;;10.94;71.39
54592;BME280;40488;48.558;18.150;2023-05-02T02:10:41;99619.31;;;10.96;71.43
54592;BME280;40488;48.558;18.150;2023-05-02T02:13:16;99617.59;;;10.98;71.55
54592;BME280;40488;48.558;18.150;2023-05-02T02:15:49;99618.47;;;10.95;71.56
54592;BME280;40488;48.558;18.150;2023-05-02T02:18:20;99613.41;;;10.89;71.29
54592;BME280;40488;48.558;18.150;2023-05-02T02:20:52;99615.94;;;10.94;71.44
54592;BME280;40488;48.558;18.150;2023-05-02T02:23:25;99613.34;;;10.95;71.68
54592;BME280;40488;48.558;18.150;2023-05-02T02:25:56;99619.34;;;10.85;71.95
54592;BME280;40488;48.558;18.150;2023-05-02T02:28:25;99619.34;;;10.81;72.43
54592;BME280;40488;48.558;18.150;2023-05-02T02:30:55;99621.97;;;10.70;71.91
54592;BME280;40488;48.558;18.150;2023-05-02T02:33:29;99616.00;;;10.63;72.75
54592;BME280;40488;48.558;18.150;2023-05-02T02:36:11;99611.75;;;10.61;72.49
54592;BME280;40488;48.558;18.150;2023-05-02T02:38:48;99617.72;;;10.67;72.71
54592;BME280;40488;48.558;18.150;2023-05-02T02:41:25;99619.41;;;10.56;72.89
54592;BME280;40488;48.558;18.150;2023-05-02T02:43:59;99621.16;;;10.48;72.91
54592;BME280;40488;48.558;18.150;2023-05-02T02:46:49;99624.56;;;10.38;73.36
54592;BME280;40488;48.558;18.150;2023-05-02T02:49:31;99629.66;;;10.38;73.09
54592;BME280;40488;48.558;18.150;2023-05-02T02:52:06;99631.34;;;10.45;73.35
54592;BME280;40488;48.558;18.150;2023-05-02T02:54:43;99631.34;;;10.48;73.90
54592;BME280;40488;48.558;18.150;2023-05-02T02:57:17;99638.13;;;10.46;73.43
54592;BME280;40488;48.558;18.150;2023-05-02T02:59:52;99627.09;;;10.46;73.38
54592;BME280;40488;48.558;18.150;2023-05-02T03:02:31;99627.06;;;10.52;73.86
54592;BME280;40488;48.558;18.150;2023-05-02T03:05:01;99625.38;;;10.54;73.32
54592;BME280;40488;48.558;18.150;2023-05-02T03:07:32;99627.94;;;10.55;72.88
54592;BME280;40488;48.558;18.150;2023-05-02T03:10:03;99627.06;;;10.61;73.21
54592;BME280;40488;48.558;18.150;2023-05-02T03:12:34;99634.72;;;10.62;72.55
54592;BME280;40488;48.558;18.150;2023-05-02T03:15:19;99630.47;;;10.58;72.48
54592;BME280;40488;48.558;18.150;2023-05-02T03:17:54;99633.00;;;10.58;72.37
54592;BME280;40488;48.558;18.150;2023-05-02T03:20:23;99636.44;;;10.57;72.45
54592;BME280;40488;48.558;18.150;2023-05-02T03:22:52;99639.84;;;10.62;72.65
54592;BME280;40488;48.558;18.150;2023-05-02T03:25:22;99633.00;;;10.58;72.39
54592;BME280;40488;48.558;18.150;2023-05-02T03:27:51;99633.03;;;10.52;72.50
54592;BME280;40488;48.558;18.150;2023-05-02T03:30:20;99631.31;;;10.54;72.57
54592;BME280;40488;48.558;18.150;2023-05-02T03:32:49;99637.28;;;10.55;72.51
54592;BME280;40488;48.558;18.150;2023-05-02T03:35:20;99637.28;;;10.50;72.22
54592;BME280;40488;48.558;18.150;2023-05-02T03:37:51;99643.22;;;10.46;71.94
54592;BME280;40488;48.558;18.150;2023-05-02T03:40:19;99643.25;;;10.49;72.41
54592;BME280;40488;48.558;18.150;2023-05-02T03:42:48;99637.28;;;10.40;72.30
54592;BME280;40488;48.558;18.150;2023-05-02T03:45:24;99645.78;;;10.34;72.33
54592;BME280;40488;48.558;18.150;2023-05-02T03:47:53;99643.28;;;10.27;72.85
54592;BME280;40488;48.558;18.150;2023-05-02T03:50:23;99628.78;;;10.09;73.01
54592;BME280;40488;48.558;18.150;2023-05-02T03:52:53;99644.91;;;10.11;73.37
54592;BME280;40488;48.558;18.150;2023-05-02T03:55:31;99655.13;;;10.11;73.59
54592;BME280;40488;48.558;18.150;2023-05-02T03:58:02;99648.31;;;9.95;73.94
54592;BME280;40488;48.558;18.150;2023-05-02T04:00:31;99654.25;;;9.98;74.36
54592;BME280;40488;48.558;18.150;2023-05-02T04:03:04;99654.25;;;9.94;74.68
54592;BME280;40488;48.558;18.150;2023-05-02T04:05:38;99643.22;;;9.95;74.40
54592;BME280;40488;48.558;18.150;2023-05-02T04:08:09;99653.44;;;9.98;74.75
54592;BME280;40488;48.558;18.150;2023-05-02T04:10:39;99650.00;;;9.96;75.49
54592;BME280;40488;48.558;18.150;2023-05-02T04:13:10;99656.81;;;9.98;75.08
54592;BME280;40488;48.558;18.150;2023-05-02T04:15:44;99657.66;;;10.03;75.26
54592;BME280;40488;48.558;18.150;2023-05-02T04:18:17;99655.13;;;10.02;76.12
54592;BME280;40488;48.558;18.150;2023-05-02T04:20:47;99654.25;;;10.10;75.99
54592;BME280;40488;48.558;18.150;2023-05-02T04:23:18;99657.72;;;10.17;76.45
54592;BME280;40488;48.558;18.150;2023-05-02T04:25:51;99656.88;;;10.24;76.30
54592;BME280;40488;48.558;18.150;2023-05-02T04:28:28;99661.97;;;10.36;76.01
54592;BME280;40488;48.558;18.150;2023-05-02T04:30:58;99661.09;;;10.42;76.29
54592;BME280;40488;48.558;18.150;2023-05-02T04:33:27;99667.91;;;10.52;75.83
54592;BME280;40488;48.558;18.150;2023-05-02T04:35:58;99680.63;;;10.65;75.37
54592;BME280;40488;48.558;18.150;2023-05-02T04:38:29;99672.13;;;10.75;75.76
54592;BME280;40488;48.558;18.150;2023-05-02T04:40:58;99667.88;;;10.82;75.15
54592;BME280;40488;48.558;18.150;2023-05-02T04:43:41;99667.00;;;10.94;75.21
54592;BME280;40488;48.558;18.150;2023-05-02T04:46:12;99666.97;;;11.03;74.83
54592;BME280;40488;48.558;18.150;2023-05-02T04:48:41;99662.69;;;11.06;74.50
54592;BME280;40488;48.558;18.150;2023-05-02T04:51:11;99671.16;;;11.16;74.46
54592;BME280;40488;48.558;18.150;2023-05-02T04:53:46;99673.72;;;11.25;74.24
54592;BME280;40488;48.558;18.150;2023-05-02T04:56:15;99668.56;;;11.28;74.07
54592;BME280;40488;48.558;18.150;2023-05-02T04:58:44;99682.22;;;11.27;73.97
54592;BME280;40488;48.558;18.150;2023-05-02T05:01:13;99674.53;;;11.34;73.48
54592;BME280;40488;48.558;18.150;2023-05-02T05:03:42;99672.00;;;11.30;73.19
54592;BME280;40488;48.558;18.150;2023-05-02T05:06:13;99671.94;;;11.42;73.31
54592;BME280;40488;48.558;18.150;2023-05-02T05:08:44;99672.72;;;11.53;73.31
54592;BME280;40488;48.558;18.150;2023-05-02T05:11:14;99673.56;;;11.55;72.85
54592;BME280;40488;48.558;18.150;2023-05-02T05:13:43;99683.78;;;11.58;72.50
54592;BME280;40488;48.558;18.150;2023-05-02T05:16:13;99676.09;;;11.63;72.11
54592;BME280;40488;48.558;18.150;2023-05-02T05:18:43;99682.03;;;11.72;72.11
54592;BME280;40488;48.558;18.150;2023-05-02T05:21:15;99676.88;;;11.80;71.67
54592;BME280;40488;48.558;18.150;2023-05-02T05:23:46;99680.22;;;11.92;71.44
54592;BME280;40488;48.558;18.150;2023-05-02T05:26:22;99680.13;;;12.04;71.11
54592;BME280;40488;48.558;18.150;2023-05-02T05:28:53;99683.47;;;12.19;70.67
54592;BME280;40488;48.558;18.150;2023-05-02T05:31:25;99691.03;;;12.31;70.50
54592;BME280;40488;48.558;18.150;2023-05-02T05:33:57;99687.50;;;12.47;69.92
54592;BME280;40488;48.558;18.150;2023-05-02T05:36:30;99692.47;;;12.63;69.69
54592;BME280;40488;48.558;18.150;2023-05-02T05:39:01;99686.38;;;12.75;69.29
54592;BME280;40488;48.558;18.150;2023-05-02T05:41:32;99691.28;;;12.96;69.01
54592;BME280;40488;48.558;18.150;2023-05-02T05:44:05;99689.38;;;13.18;68.87
54592;BME280;40488;48.558;18.150;2023-05-02T05:46:34;99691.81;;;13.31;68.66
54592;BME280;40488;48.558;18.150;2023-05-02T05:49:04;99695.94;;;13.41;67.97
54592;BME280;40488;48.558;18.150;2023-05-02T05:51:36;99690.78;;;13.44;66.88
54592;BME280;40488;48.558;18.150;2023-05-02T05:54:05;99692.47;;;13.44;65.89
54592;BME280;40488;48.558;18.150;2023-05-02T05:56:34;99699.34;;;13.43;65.37
54592;BME280;40488;48.558;18.150;2023-05-02T05:59:11;99694.16;;;13.47;64.88
54592;BME280;40488;48.558;18.150;2023-05-02T06:01:40;99696.59;;;13.56;64.68
54592;BME280;40488;48.558;18.150;2023-05-02T06:04:10;99693.81;;;13.74;64.45
54592;BME280;40488;48.558;18.150;2023-05-02T06:06:43;99697.00;;;13.91;64.24
54592;BME280;40488;48.558;18.150;2023-05-02T06:09:12;99700.25;;;14.02;63.77
54592;BME280;40488;48.558;18.150;2023-05-02T06:11:41;99700.09;;;14.14;63.87
54592;BME280;40488;48.558;18.150;2023-05-02T06:14:10;99712.78;;;14.23;63.77
54592;BME280;40488;48.558;18.150;2023-05-02T06:16:39;99707.56;;;14.28;63.98
54592;BME280;40488;48.558;18.150;2023-05-02T06:19:09;99708.31;;;14.37;63.72
54592;BME280;40488;48.558;18.150;2023-05-02T06:21:38;99714.16;;;14.47;63.63
54592;BME280;40488;48.558;18.150;2023-05-02T06:24:09;99718.34;;;14.52;63.42
54592;BME280;40488;48.558;18.150;2023-05-02T06:26:38;99719.09;;;14.59;64.04
54592;BME280;40488;48.558;18.150;2023-05-02T06:29:06;99713.75;;;14.71;64.22
54592;BME280;40488;48.558;18.150;2023-05-02T06:31:35;99721.28;;;14.82;64.77
54592;BME280;40488;48.558;18.150;2023-05-02T06:34:04;99723.69;;;14.91;63.95
54592;BME280;40488;48.558;18.150;2023-05-02T06:36:33;99722.75;;;14.96;63.06
54592;BME280;40488;48.558;18.150;2023-05-02T06:39:02;99728.63;;;15.03;62.13
54592;BME280;40488;48.558;18.150;2023-05-02T06:41:32;99736.16;;;15.12;61.60
54592;BME280;40488;48.558;18.150;2023-05-02T06:44:01;99732.50;;;15.25;61.43
54592;BME280;40488;48.558;18.150;2023-05-02T06:46:29;99728.59;;;15.50;61.01
54592;BME280;40488;48.558;18.150;2023-05-02T06:48:58;99730.84;;;15.67;60.68
54592;BME280;40488;48.558;18.150;2023-05-02T06:51:27;99733.13;;;15.80;60.81
54592;BME280;40488;48.558;18.150;2023-05-02T06:53:56;99741.44;;;15.93;60.75
54592;BME280;40488;48.558;18.150;2023-05-02T06:56:25;99737.72;;;16.06;60.29
54592;BME280;40488;48.558;18.150;2023-05-02T06:58:55;99741.13;;;16.06;60.22
54592;BME280;40488;48.558;18.150;2023-05-02T07:01:24;99735.78;;;16.16;60.17
54592;BME280;40488;48.558;18.150;2023-05-02T07:03:53;99732.25;;;16.20;59.76
54592;BME280;40488;48.558;18.150;2023-05-02T07:06:22;99739.03;;;16.24;59.26
54592;BME280;40488;48.558;18.150;2023-05-02T07:08:52;99733.81;;;16.27;59.59
54592;BME280;40488;48.558;18.150;2023-05-02T07:11:21;99743.75;;;16.42;59.56
54592;BME280;40488;48.558;18.150;2023-05-02T07:13:50;99744.41;;;16.51;59.23
54592;BME280;40488;48.558;18.150;2023-05-02T07:16:20;99739.88;;;16.61;58.37
54592;BME280;40488;48.558;18.150;2023-05-02T07:18:49;99740.63;;;16.67;58.50
54592;BME280;40488;48.558;18.150;2023-05-02T07:21:18;99738.59;;;16.79;58.00
54592;BME280;40488;48.558;18.150;2023-05-02T07:23:47;99748.53;;;16.94;57.72
54592;BME280;40488;48.558;18.150;2023-05-02T07:26:16;99748.22;;;17.06;57.49
54592;BME280;40488;48.558;18.150;2023-05-02T07:28:46;99750.44;;;17.19;56.82
54592;BME280;40488;48.558;18.150;2023-05-02T07:31:15;99754.53;;;17.26;57.24
54592;BME280;40488;48.558;18.150;2023-05-02T07:33:47;99752.38;;;17.42;57.41
54592;BME280;40488;48.558;18.150;2023-05-02T07:36:16;99746.19;;;17.49;57.13
54592;BME280;40488;48.558;18.150;2023-05-02T07:38:45;99749.47;;;17.56;56.95
54592;BME280;40488;48.558;18.150;2023-05-02T07:41:14;99750.72;;;17.72;57.16
54592;BME280;40488;48.558;18.150;2023-05-02T07:43:42;99758.03;;;17.87;56.16
54592;BME280;40488;48.558;18.150;2023-05-02T07:46:12;99757.13;;;17.88;54.34
54592;BME280;40488;48.558;18.150;2023-05-02T07:48:41;99756.97;;;17.94;54.09
54592;BME280;40488;48.558;18.150;2023-05-02T07:51:12;99755.81;;;18.04;53.74
54592;BME280;40488;48.558;18.150;2023-05-02T07:53:41;99751.16;;;18.15;52.48
54592;BME280;40488;48.558;18.150;2023-05-02T07:56:10;99755.09;;;18.27;51.63
54592;BME280;40488;48.558;18.150;2023-05-02T07:58:39;99752.38;;;18.31;51.13
54592;BME280;40488;48.558;18.150;2023-05-02T08:01:08;99743.75;;;18.32;50.48
54592;BME280;40488;48.558;18.150;2023-05-02T08:03:36;99759.03;;;18.38;50.57
54592;BME280;40488;48.558;18.150;2023-05-02T08:06:05;99760.75;;;18.39;50.91
54592;BME280;40488;48.558;18.150;2023-05-02T08:08:37;99756.56;;;18.35;50.42
54592;BME280;40488;48.558;18.150;2023-05-02T08:11:06;99758.94;;;18.41;49.97
54592;BME280;40488;48.558;18.150;2023-05-02T08:13:35;99758.22;;;18.65;49.80
54592;BME280;40488;48.558;18.150;2023-05-02T08:16:04;99760.63;;;18.96;50.76
54592;BME280;40488;48.558;18.150;2023-05-02T08:18:34;99759.31;;;19.34;51.65
54592;BME280;40488;48.558;18.150;2023-05-02T08:21:03;99762.31;;;19.48;51.30
54592;BME280;40488;48.558;18.150;2023-05-02T08:23:32;99764.00;;;19.49;49.94
54592;BME280;40488;48.558;18.150;2023-05-02T08:26:03;99762.16;;;19.53;49.62
54592;BME280;40488;48.558;18.150;2023-05-02T08:28:34;99765.09;;;19.67;49.76
54592;BME280;40488;48.558;18.150;2023-05-02T08:31:03;99762.16;;;19.76;49.14
54592;BME280;40488;48.558;18.150;2023-05-02T08:33:32;99762.22;;;19.74;49.70
54592;BME280;40488;48.558;18.150;2023-05-02T08:36:09;99764.91;;;19.71;49.21
54592;BME280;40488;48.558;18.150;2023-05-02T08:38:38;99766.56;;;19.74;48.88
54592;BME280;40488;48.558;18.150;2023-05-02T08:41:13;99761.66;;;19.66;48.31
54592;BME280;40488;48.558;18.150;2023-05-02T08:43:43;99759.22;;;19.85;49.29
54592;BME280;40488;48.558;18.150;2023-05-02T08:46:13;99762.03;;;20.02;49.25
54592;BME280;40488;48.558;18.150;2023-05-02T08:48:44;99763.31;;;20.14;49.01
54592;BME280;40488;48.558;18.150;2023-05-02T08:51:16;99759.50;;;20.24;48.80
54592;BME280;40488;48.558;18.150;2023-05-02T08:53:51;99747.75;;;20.37;47.91
54592;BME280;40488;48.558;18.150;2023-05-02T08:56:21;99748.16;;;20.48;48.14
54592;BME280;40488;48.558;18.150;2023-05-02T08:58:51;99756.88;;;20.67;49.14
54592;BME280;40488;48.558;18.150;2023-05-02T09:01:22;99749.19;;;20.86;49.44
54592;BME280;40488;48.558;18.150;2023-05-02T09:03:51;99740.06;;;20.77;48.23
54592;BME280;40488;48.558;18.150;2023-05-02T09:06:23;99741.63;;;20.59;47.40
54592;BME280;40488;48.558;18.150;2023-05-02T09:08:52;99739.69;;;20.64;47.08
54592;BME280;40488;48.558;18.150;2023-05-02T09:11:22;99747.41;;;20.66;46.79
54592;BME280;40488;48.558;18.150;2023-05-02T09:13:51;99738.44;;;20.53;46.30
54592;BME280;40488;48.558;18.150;2023-05-02T09:16:21;99742.38;;;20.63;46.43
54592;BME280;40488;48.558;18.150;2023-05-02T09:18:53;99744.97;;;20.83;46.53
54592;BME280;40488;48.558;18.150;2023-05-02T09:21:24;99744.63;;;20.92;46.60
54592;BME280;40488;48.558;18.150;2023-05-02T09:23:54;99745.88;;;21.02;46.66
54592;BME280;40488;48.558;18.150;2023-05-02T09:26:27;99750.19;;;21.03;46.70
54592;BME280;40488;48.558;18.150;2023-05-02T09:29:00;99751.22;;;20.99;46.81
54592;BME280;40488;48.558;18.150;2023-05-02T09:31:30;99752.91;;;21.00;47.00
54592;BME280;40488;48.558;18.150;2023-05-02T09:34:08;99750.06;;;21.26;48.10
54592;BME280;40488;48.558;18.150;2023-05-02T09:36:39;99751.50;;;21.33;47.51
54592;BME280;40488;48.558;18.150;2023-05-02T09:39:09;99755.25;;;21.26;46.97
54592;BME280;40488;48.558;18.150;2023-05-02T09:41:42;99745.47;;;21.33;47.15
54592;BME280;40488;48.558;18.150;2023-05-02T09:44:13;99744.22;;;21.21;46.54
54592;BME280;40488;48.558;18.150;2023-05-02T09:46:44;99746.69;;;21.24;46.78
54592;BME280;40488;48.558;18.150;2023-05-02T09:49:13;99741.84;;;21.17;46.44
54592;BME280;40488;48.558;18.150;2023-05-02T09:51:46;99746.69;;;21.24;46.46
54592;BME280;40488;48.558;18.150;2023-05-02T09:54:35;99742.53;;;21.41;46.53
54592;BME280;40488;48.558;18.150;2023-05-02T09:57:05;99736.53;;;21.59;47.30
54592;BME280;40488;48.558;18.150;2023-05-02T09:59:34;99742.59;;;21.78;46.50
54592;BME280;40488;48.558;18.150;2023-05-02T10:02:05;99743.34;;;22.00;46.74
54592;BME280;40488;48.558;18.150;2023-05-02T10:04:37;99744.63;;;22.27;46.75
54592;BME280;40488;48.558;18.150;2023-05-02T10:07:08;99749.59;;;22.50;46.26
54592;BME280;40488;48.558;18.150;2023-05-02T10:09:42;99736.13;;;22.24;44.87
54592;BME280;40488;48.558;18.150;2023-05-02T10:12:15;99738.97;;;22.19;44.82
54592;BME280;40488;48.558;18.150;2023-05-02T10:14:49;99732.38;;;22.29;44.84
54592;BME280;40488;48.558;18.150;2023-05-02T10:17:27;99733.94;;;22.33;44.67
54592;BME280;40488;48.558;18.150;2023-05-02T10:20:02;99729.06;;;22.44;45.12
54592;BME280;40488;48.558;18.150;2023-05-02T10:22:32;99726.00;;;22.53;44.85
54592;BME280;40488;48.558;18.150;2023-05-02T10:25:02;99721.84;;;22.32;44.25
54592;BME280;40488;48.558;18.150;2023-05-02T10:27:34;99727.56;;;22.22;44.52
54592;BME280;40488;48.558;18.150;2023-05-02T10:30:05;99716.69;;;22.14;44.22
54592;BME280;40488;48.558;18.150;2023-05-02T10:32:35;99720.94;;;22.33;44.44
54592;BME280;40488;48.558;18.150;2023-05-02T10:35:06;99721.41;;;22.58;45.13
54592;BME280;40488;48.558;18.150;2023-05-02T10:37:37;99728.38;;;22.94;45.79
54592;BME280;40488;48.558;18.150;2023-05-02T10:40:10;99726.06;;;22.88;44.55
54592;BME280;40488;48.558;18.150;2023-05-02T10:42:43;99727.44;;;23.12;45.09
54592;BME280;40488;48.558;18.150;2023-05-02T10:45:30;99717.16;;;23.09;44.41
54592;BME280;40488;48.558;18.150;2023-05-02T10:48:12;99723.50;;;23.20;44.05
54592;BME280;40488;48.558;18.150;2023-05-02T10:50:43;99722.25;;;23.27;43.90
54592;BME280;40488;48.558;18.150;2023-05-02T10:53:25;99721.59;;;23.24;43.57
54592;BME280;40488;48.558;18.150;2023-05-02T10:56:08;99710.56;;;23.19;43.72
54592;BME280;40488;48.558;18.150;2023-05-02T10:58:40;99711.66;;;22.98;43.77
54592;BME280;40488;48.558;18.150;2023-05-02T11:04:01;99709.66;;;23.20;44.73
54592;BME280;40488;48.558;18.150;2023-05-02T11:06:32;99710.56;;;23.36;44.68
54592;BME280;40488;48.558;18.150;2023-05-02T11:11:54;99709.22;;;22.78;43.93
54592;BME280;40488;48.558;18.150;2023-05-02T11:17:24;99705.56;;;22.64;44.01
54592;BME280;40488;48.558;18.150;2023-05-02T11:20:17;99710.16;;;22.77;44.17
54592;BME280;40488;48.558;18.150;2023-05-02T11:22:47;99709.97;;;22.97;44.56
54592;BME280;40488;48.558;18.150;2023-05-02T11:25:28;99717.72;;;23.15;44.91
54592;BME280;40488;48.558;18.150;2023-05-02T11:27:59;99720.50;;;23.28;45.04
54592;BME280;40488;48.558;18.150;2023-05-02T11:33:17;99712.13;;;23.56;45.14
54592;BME280;40488;48.558;18.150;2023-05-02T11:35:47;99717.19;;;23.90;45.97
54592;BME280;40488;48.558;18.150;2023-05-02T11:38:19;99708.41;;;24.08;45.00
54592;BME280;40488;48.558;18.150;2023-05-02T11:40:54;99710.97;;;23.92;44.07
54592;BME280;40488;48.558;18.150;2023-05-02T11:43:25;99693.50;;;23.94;43.93
54592;BME280;40488;48.558;18.150;2023-05-02T11:45:59;99705.41;;;23.83;43.61
54592;BME280;40488;48.558;18.150;2023-05-02T11:48:30;99704.25;;;23.88;45.10
54592;BME280;40488;48.558;18.150;2023-05-02T11:51:00;99706.13;;;24.18;44.89
54592;BME280;40488;48.558;18.150;2023-05-02T11:53:39;99708.94;;;24.44;45.14
54592;BME280;40488;48.558;18.150;2023-05-02T11:56:09;99701.88;;;24.46;44.05
54592;BME280;40488;48.558;18.150;2023-05-02T11:58:39;99705.25;;;24.33;43.44
54592;BME280;40488;48.558;18.150;2023-05-02T12:01:11;99696.34;;;24.06;43.01
54592;BME280;40488;48.558;18.150;2023-05-02T12:03:43;99699.56;;;24.11;42.97
54592;BME280;40488;48.558;18.150;2023-05-02T12:06:14;99696.59;;;24.17;43.61
54592;BME280;40488;48.558;18.150;2023-05-02T12:08:46;99695.91;;;24.44;44.36
54592;BME280;40488;48.558;18.150;2023-05-02T12:11:15;99697.28;;;24.50;43.33
54592;BME280;40488;48.558;18.150;2023-05-02T12:13:45;99708.78;;;24.32;42.93
54592;BME280;40488;48.558;18.150;2023-05-02T12:16:15;99713.94;;;24.18;42.78
54592;BME280;40488;48.558;18.150;2023-05-02T12:18:46;99710.81;;;23.95;42.84
54592;BME280;40488;48.558;18.150;2023-05-02T12:21:16;99709.28;;;23.91;42.80
54592;BME280;40488;48.558;18.150;2023-05-02T12:23:45;99695.03;;;23.50;43.17
54592;BME280;40488;48.558;18.150;2023-05-02T12:26:17;99694.97;;;23.67;43.36
54592;BME280;40488;48.558;18.150;2023-05-02T12:28:50;99681.88;;;23.84;43.68
54592;BME280;40488;48.558;18.150;2023-05-02T12:31:21;99696.84;;;23.65;43.19
54592;BME280;40488;48.558;18.150;2023-05-02T12:33:51;99695.19;;;23.30;43.43
54592;BME280;40488;48.558;18.150;2023-05-02T12:36:24;99694.94;;;23.36;44.53
54592;BME280;40488;48.558;18.150;2023-05-02T12:38:56;99693.13;;;23.69;44.86
54592;BME280;40488;48.558;18.150;2023-05-02T12:41:31;99688.44;;;23.91;44.27
54592;BME280;40488;48.558;18.150;2023-05-02T12:44:02;99693.13;;;24.00;43.49
54592;BME280;40488;48.558;18.150;2023-05-02T12:46:31;99691.44;;;23.99;44.05
54592;BME280;40488;48.558;18.150;2023-05-02T12:49:05;99700.72;;;23.89;43.72
54592;BME280;40488;48.558;18.150;2023-05-02T12:51:37;99697.31;;;23.87;44.42
54592;BME280;40488;48.558;18.150;2023-05-02T12:54:06;99700.63;;;23.75;44.12
54592;BME280;40488;48.558;18.150;2023-05-02T12:56:38;99691.28;;;23.71;44.57
54592;BME280;40488;48.558;18.150;2023-05-02T12:59:07;99694.31;;;23.79;44.38
54592;BME280;40488;48.558;18.150;2023-05-02T13:01:36;99697.16;;;23.90;46.68
54592;BME280;40488;48.558;18.150;2023-05-02T13:04:06;99699.03;;;23.88;49.30
54592;BME280;40488;48.558;18.150;2023-05-02T13:06:35;99689.03;;;23.96;51.07
54592;BME280;40488;48.558;18.150;2023-05-02T13:09:04;99687.16;;;23.98;50.21
54592;BME280;40488;48.558;18.150;2023-05-02T13:11:33;99683.63;;;23.99;48.77
54592;BME280;40488;48.558;18.150;2023-05-02T13:14:02;99684.41;;;24.02;46.94
54592;BME280;40488;48.558;18.150;2023-05-02T13:16:31;99682.63;;;24.18;46.54
54592;BME280;40488;48.558;18.150;2023-05-02T13:19:04;99682.00;;;24.28;45.74
54592;BME280;40488;48.558;18.150;2023-05-02T13:21:34;99686.81;;;24.36;44.89
54592;BME280;40488;48.558;18.150;2023-05-02T13:24:04;99677.13;;;24.38;44.38